Time;durP1;ratioP1;P1;durP2;ratioP2;P2;SDS_P1;SDS_P2;PMS_P1;PMS_P2;Temp;Humidity;BMP_temperature;BMP_pressure;BME280_temperature;BME280_humidity;BME280_pressure;Samples;Min_cycle;Max_cycle;Signal;HPM_P1;HPM_P2
2022/04/23 00:01:35;;;;;;;14.43;12.93;;;;;;;;;;5020899;28;20444;-92
2022/04/23 00:04:03;;;;;;;16.83;14.93;;;;;;;;;;5021169;28;20801;-87
2022/04/23 00:06:30;;;;;;;14.73;13.00;;;;;;;;;;5025207;28;20485;-89
2022/04/23 00:08:57;;;;;;;15.47;13.50;;;;;;;;;;5025015;28;20448;-90
2022/04/23 00:11:24;;;;;;;15.80;13.83;;;;;;;;;;5026034;28;20439;-93
2022/04/23 00:13:51;;;;;;;14.93;13.27;;;;;;;;;;5020404;28;20532;-86
2022/04/23 00:16:19;;;;;;;14.67;12.57;;;9.80;99.90;;;;;;5016468;28;20463;-92
2022/04/23 00:18:47;;;;;;;16.63;12.43;;;;;;;;;;5020201;28;20455;-93
2022/04/23 00:21:14;;;;;;;15.17;13.40;;;;;;;;;;5027071;28;20436;-92
2022/04/23 00:23:41;;;;;;;15.80;13.33;;;;;;;;;;5027986;28;20444;-88
2022/04/23 00:26:08;;;;;;;16.50;13.57;;;;;;;;;;5026626;28;20448;-91
2022/04/23 00:28:35;;;;;;;18.00;13.80;;;;;;;;;;5028697;28;20462;-87
2022/04/23 00:31:04;;;;;;;15.97;13.57;;;;;;;;;;5025035;28;20451;-87
2022/04/23 00:33:32;;;;;;;16.00;14.40;;;9.80;99.90;;;;;;5022370;28;20456;-86
2022/04/23 00:35:59;;;;;;;19.07;14.50;;;;;;;;;;5026918;28;20453;-86
2022/04/23 00:38:26;;;;;;;15.27;13.40;;;;;;;;;;5022167;28;20456;-93
2022/04/23 00:40:55;;;;;;;16.70;14.07;;;;;;;;;;5021358;28;20457;-94
2022/04/23 00:43:29;;;;;;;15.97;13.90;;;9.60;99.90;;;;;;5027064;28;20510;-93
2022/04/23 00:45:57;;;;;;;14.30;12.80;;;9.50;99.90;;;;;;5026073;28;20448;-87
2022/04/23 00:48:26;;;;;;;14.33;12.87;;;;;;;;;;5025946;28;20499;-88
2022/04/23 00:50:57;;;;;;;15.00;13.43;;;9.50;99.90;;;;;;5030174;28;20455;-87
2022/04/23 00:53:25;;;;;;;17.83;12.67;;;9.60;99.90;;;;;;5029228;28;20424;-88
2022/04/23 00:55:53;;;;;;;16.40;13.97;;;;;;;;;;5029616;28;20439;-88
2022/04/23 00:58:23;;;;;;;15.70;14.10;;;;;;;;;;5030362;28;20444;-87
2022/04/23 01:00:50;;;;;;;15.50;13.83;;;;;;;;;;5027746;28;21114;-87
2022/04/23 01:03:17;;;;;;;14.57;12.13;;;;;;;;;;5028478;28;20424;-89
2022/04/23 01:05:45;;;;;;;13.80;12.17;;;;;;;;;;5026696;28;20827;-87
2022/04/23 01:08:18;;;;;;;13.50;12.17;;;9.40;99.90;;;;;;5028236;28;20511;-88
2022/04/23 01:10:45;;;;;;;15.40;13.23;;;;;;;;;;5029167;28;20506;-88
2022/04/23 01:13:14;;;;;;;13.97;12.33;;;;;;;;;;5028716;28;20436;-89
2022/04/23 01:15:43;;;;;;;13.40;11.97;;;;;;;;;;5027603;28;20452;-91
2022/04/23 01:18:12;;;;;;;13.90;11.83;;;;;;;;;;5028430;28;20441;-88
2022/04/23 01:20:40;;;;;;;14.83;12.63;;;9.30;99.90;;;;;;5031290;28;20464;-89
2022/04/23 01:23:08;;;;;;;13.77;12.20;;;;;;;;;;5035950;23;20488;-90
2022/04/23 01:25:35;;;;;;;15.30;12.70;;;;;;;;;;5028086;28;20449;-87
2022/04/23 01:28:02;;;;;;;15.17;12.07;;;;;;;;;;5027224;28;20507;-87
2022/04/23 01:30:29;;;;;;;14.03;11.43;;;;;;;;;;5031544;28;20452;-95
2022/04/23 01:32:57;;;;;;;14.77;12.70;;;;;;;;;;5032148;28;20432;-88
2022/04/23 01:35:25;;;;;;;13.73;11.30;;;;;;;;;;5033101;28;20440;-88
2022/04/23 01:37:53;;;;;;;12.63;11.33;;;9.20;99.90;;;;;;5035488;28;20460;-90
2022/04/23 01:40:20;;;;;;;14.23;12.23;;;;;;;;;;5033192;28;20447;-88
2022/04/23 01:42:47;;;;;;;12.90;11.33;;;;;;;;;;5032090;28;20444;-92
2022/04/23 01:45:14;;;;;;;13.53;11.80;;;;;;;;;;5032778;28;20419;-88
2022/04/23 01:47:41;;;;;;;15.33;12.17;;;;;;;;;;5038097;28;20487;-91
2022/04/23 01:50:09;;;;;;;13.60;12.20;;;8.90;99.90;;;;;;5054299;28;20469;-91
2022/04/23 01:52:36;;;;;;;14.57;12.30;;;;;;;;;;5055773;28;20427;-87
2022/04/23 01:55:05;;;;;;;14.40;12.50;;;9.00;99.90;;;;;;5056555;28;20434;-88
2022/04/23 01:57:33;;;;;;;13.87;12.43;;;;;;;;;;5055204;28;20841;-87
2022/04/23 02:00:00;;;;;;;13.00;11.70;;;;;;;;;;5045687;28;20772;-93
2022/04/23 02:02:27;;;;;;;15.70;14.07;;;;;;;;;;5042307;28;20447;-88
2022/04/23 02:04:54;;;;;;;14.97;12.90;;;;;;;;;;5045349;28;20462;-93
2022/04/23 02:07:21;;;;;;;14.90;13.40;;;;;;;;;;5041978;28;20490;-87
2022/04/23 02:09:48;;;;;;;17.47;13.77;;;;;;;;;;5045751;28;20439;-90
2022/04/23 02:12:17;;;;;;;16.23;13.10;;;8.90;99.90;;;;;;5051088;28;20443;-89
2022/04/23 02:14:44;;;;;;;16.23;13.50;;;;;;;;;;5048138;28;20424;-89
2022/04/23 02:17:11;;;;;;;20.80;14.63;;;;;;;;;;5047608;28;20443;-89
2022/04/23 02:19:39;;;;;;;17.23;14.43;;;;;;;;;;5047153;28;20432;-92
2022/04/23 02:22:06;;;;;;;16.60;14.00;;;;;;;;;;5045795;28;20479;-87
2022/04/23 02:24:33;;;;;;;14.90;13.30;;;;;;;;;;5050460;28;20539;-92
2022/04/23 02:27:00;;;;;;;16.57;14.87;;;;;;;;;;5046865;28;20646;-92
2022/04/23 02:29:28;;;;;;;20.53;13.90;;;8.70;99.90;;;;;;5044455;28;20458;-93
2022/04/23 02:31:56;;;;;;;20.07;14.43;;;;;;;;;;5050450;28;20440;-92
2022/04/23 02:34:23;;;;;;;16.60;14.80;;;;;;;;;;5046322;28;20462;-85
2022/04/23 02:36:50;;;;;;;20.70;15.60;;;;;;;;;;5051500;28;20462;-88
2022/04/23 02:39:17;;;;;;;16.97;14.53;;;;;;;;;;5054462;28;20450;-86
2022/04/23 02:41:44;;;;;;;16.60;14.20;;;;;;;;;;5052639;28;20436;-86
2022/04/23 02:44:15;;;;;;;16.63;14.33;;;;;;;;;;5054525;28;20451;-87
2022/04/23 02:46:45;;;;;;;17.03;14.67;;;8.30;99.90;;;;;;5053552;28;20509;-87
2022/04/23 02:49:12;;;;;;;17.60;15.23;;;;;;;;;;5049254;28;20498;-94
2022/04/23 02:51:42;;;;;;;17.73;15.83;;;;;;;;;;5046270;28;20451;-90
2022/04/23 02:54:09;;;;;;;19.10;16.30;;;;;;;;;;5044708;28;20474;-93
2022/04/23 02:56:36;;;;;;;17.73;15.80;;;;;;;;;;5045198;28;20484;-89
2022/04/23 02:59:03;;;;;;;16.97;15.17;;;;;;;;;;5045317;28;20481;-92
2022/04/23 03:01:31;;;;;;;16.03;14.43;;;;;;;;;;5048042;28;20474;-89
2022/04/23 03:03:59;;;;;;;19.70;17.17;;;8.10;99.90;;;;;;5045315;28;20447;-90
2022/04/23 03:06:29;;;;;;;19.87;16.40;;;;;;;;;;5047901;28;20498;-89
2022/04/23 03:08:56;;;;;;;20.13;16.80;;;;;;;;;;5051967;28;20489;-87
2022/04/23 03:11:23;;;;;;;21.00;17.00;;;;;;;;;;5045929;28;20455;-88
2022/04/23 03:13:50;;;;;;;17.73;15.70;;;;;;;;;;5044755;28;20451;-90
2022/04/23 03:16:18;;;;;;;18.83;16.00;;;;;;;;;;5046462;28;20455;-92
2022/04/23 03:18:45;;;;;;;20.00;17.20;;;;;;;;;;5044121;28;20448;-87
2022/04/23 03:21:13;;;;;;;19.13;16.53;;;7.80;99.90;;;;;;5044695;28;20432;-90
2022/04/23 03:23:40;;;;;;;17.80;15.43;;;;;;;;;;5046089;28;20484;-86
2022/04/23 03:26:08;;;;;;;20.40;16.80;;;;;;;;;;5047696;28;20814;-91
2022/04/23 03:28:35;;;;;;;18.67;15.07;;;;;;;;;;5047430;28;20491;-87
2022/04/23 03:31:03;;;;;;;16.83;15.07;;;;;;;;;;5044849;28;20509;-93
2022/04/23 03:33:30;;;;;;;18.60;16.00;;;;;;;;;;5043553;28;20461;-91
2022/04/23 03:35:58;;;;;;;18.70;16.60;;;;;;;;;;5046650;28;20825;-88
2022/04/23 03:38:26;;;;;;;17.70;14.80;;;7.20;99.90;;;;;;5047673;28;20448;-93
2022/04/23 03:40:55;;;;;;;17.73;15.83;;;;;;;;;;5047991;28;20927;-87
2022/04/23 03:43:24;;;;;;;19.10;15.10;;;;;;;;;;5047081;28;20448;-91
2022/04/23 03:45:52;;;;;;;18.33;15.57;;;;;;;;;;5048302;28;20467;-88
2022/04/23 03:48:19;;;;;;;16.80;14.90;;;;;;;;;;5049710;28;20567;-87
2022/04/23 03:50:47;;;;;;;21.03;17.23;;;;;;;;;;5051013;28;20423;-87
2022/04/23 03:53:14;;;;;;;20.00;15.70;;;;;;;;;;5047494;28;20535;-88
2022/04/23 03:55:43;;;;;;;18.47;15.30;;;7.50;99.90;;;;;;5043883;28;20476;-87
2022/04/23 03:58:10;;;;;;;21.50;16.03;;;;;;;;;;5042765;28;20443;-91
2022/04/23 04:00:37;;;;;;;19.93;17.00;;;;;;;;;;5043420;28;20451;-88
2022/04/23 04:03:04;;;;;;;20.27;16.83;;;;;;;;;;5042045;28;20458;-88
2022/04/23 04:05:31;;;;;;;22.30;16.93;;;;;;;;;;5040477;28;20840;-88
2022/04/23 04:07:59;;;;;;;18.50;15.80;;;;;;;;;;5040277;22;20503;-92
2022/04/23 04:10:26;;;;;;;19.30;15.87;;;;;;;;;;5020825;28;20506;-91
2022/04/23 04:12:54;;;;;;;18.87;15.40;;;7.50;99.90;;;;;;5019239;28;20928;-93
2022/04/23 04:15:22;;;;;;;20.80;17.87;;;;;;;;;;5021248;28;20441;-93
2022/04/23 04:17:51;;;;;;;19.73;15.93;;;7.50;99.90;;;;;;5020875;28;20506;-94
2022/04/23 04:20:18;;;;;;;18.27;15.40;;;;;;;;;;5020205;28;20452;-93
2022/04/23 04:22:46;;;;;;;18.20;15.27;;;7.60;99.90;;;;;;5023473;28;20444;-94
2022/04/23 04:25:14;;;;;;;18.30;16.20;;;;;;;;;;5020807;28;20447;-94
2022/04/23 04:27:41;;;;;;;16.47;14.47;;;;;;;;;;5023358;28;20484;-92
2022/04/23 04:30:12;;;;;;;21.33;15.97;;;7.80;99.90;;;;;;5023436;28;20453;-94
2022/04/23 04:32:41;;;;;;;18.33;16.13;;;;;;;;;;5025269;28;20444;-92
2022/04/23 04:35:09;;;;;;;18.83;15.30;;;7.80;99.90;;;;;;5022094;28;20475;-93
2022/04/23 04:37:36;;;;;;;19.17;15.33;;;;;;;;;;5021542;28;20452;-94
2022/04/23 04:40:05;;;;;;;17.47;14.70;;;7.90;99.90;;;;;;5021651;28;20448;-95
2022/04/23 04:42:32;;;;;;;18.33;15.77;;;;;;;;;;5021928;28;20441;-91
2022/04/23 04:44:59;;;;;;;16.60;14.40;;;;;;;;;;5021868;28;20448;-91
2022/04/23 04:47:27;;;;;;;11.47;10.00;;;8.00;99.90;;;;;;5023353;28;20440;-93
2022/04/23 04:49:55;;;;;;;20.07;15.53;;;8.10;99.90;;;;;;5020843;28;20456;-89
2022/04/23 04:52:23;;;;;;;17.43;15.00;;;;;;;;;;5022618;28;20452;-92
2022/04/23 04:54:50;;;;;;;16.43;14.43;;;;;;;;;;5024315;28;20463;-92
2022/04/23 04:57:17;;;;;;;14.90;12.47;;;;;;;;;;5041493;28;20828;-90
2022/04/23 04:59:45;;;;;;;19.60;16.13;;;;;;;;;;5040785;28;20448;-94
2022/04/23 05:02:12;;;;;;;16.20;14.17;;;;;;;;;;5040319;28;20990;-93
2022/04/23 05:04:40;;;;;;;15.30;12.87;;;8.50;99.90;;;;;;5039166;28;20943;-92
2022/04/23 05:07:07;;;;;;;17.37;14.37;;;;;;;;;;5040249;28;20475;-95
2022/04/23 05:09:34;;;;;;;14.10;11.60;;;;;;;;;;5039504;28;20475;-86
2022/04/23 05:12:01;;;;;;;13.07;11.20;;;;;;;;;;5043208;28;20447;-94
2022/04/23 05:14:29;;;;;;;15.30;13.17;;;;;;;;;;5040735;28;20478;-92
2022/04/23 05:16:56;;;;;;;15.17;12.60;;;;;;;;;;5041880;28;20444;-92
2022/04/23 05:19:23;;;;;;;16.90;14.37;;;;;;;;;;5040145;28;20455;-94
2022/04/23 05:21:51;;;;;;;14.87;12.23;;;8.60;99.90;;;;;;5040894;28;20928;-91
2022/04/23 05:24:18;;;;;;;16.60;13.27;;;;;;;;;;5042862;28;20452;-89
2022/04/23 05:26:45;;;;;;;15.67;13.07;;;;;;;;;;5039420;28;20460;-94
2022/04/23 05:29:13;;;;;;;15.13;13.23;;;;;;;;;;5040597;28;20873;-91
2022/04/23 05:31:40;;;;;;;14.50;12.97;;;;;;;;;;5041666;28;20443;-94
2022/04/23 05:34:07;;;;;;;16.07;14.40;;;;;;;;;;5039594;28;20957;-92
2022/04/23 05:36:35;;;;;;;16.80;14.40;;;;;;;;;;5039272;28;20455;-92
2022/04/23 05:39:03;;;;;;;18.77;13.43;;;8.80;99.90;;;;;;5036530;28;20448;-94
2022/04/23 05:41:30;;;;;;;16.00;13.40;;;;;;;;;;5036878;28;20460;-94
2022/04/23 05:43:58;;;;;;;13.07;11.60;;;;;;;;;;5036767;28;20444;-90
2022/04/23 05:46:25;;;;;;;17.50;14.23;;;;;;;;;;5034476;28;20947;-92
2022/04/23 05:48:52;;;;;;;14.60;12.93;;;;;;;;;;5034915;28;20494;-91
2022/04/23 05:51:19;;;;;;;16.70;13.67;;;;;;;;;;5036007;28;20949;-93
2022/04/23 05:53:47;;;;;;;14.10;12.07;;;;;;;;;;5036427;28;20435;-92
2022/04/23 05:56:15;;;;;;;13.83;12.10;;;9.20;99.90;;;;;;5034864;28;20428;-88
2022/04/23 05:58:42;;;;;;;12.13;10.70;;;;;;;;;;5035270;28;20446;-92
2022/04/23 06:01:09;;;;;;;16.43;13.30;;;;;;;;;;5036268;28;20439;-89
2022/04/23 06:03:36;;;;;;;14.80;11.73;;;;;;;;;;5038597;28;20447;-92
2022/04/23 06:06:03;;;;;;;15.20;13.33;;;;;;;;;;5034352;28;20443;-89
2022/04/23 06:08:31;;;;;;;18.07;13.70;;;;;;;;;;5029868;28;20561;-93
2022/04/23 06:10:58;;;;;;;16.27;13.10;;;;;;;;;;5035339;28;20448;-89
2022/04/23 06:13:26;;;;;;;13.90;12.50;;;9.20;99.90;;;;;;5036801;28;20450;-93
2022/04/23 06:15:54;;;;;;;14.87;12.53;;;;;;;;;;5034602;28;20483;-89
2022/04/23 06:18:21;;;;;;;15.27;12.00;;;;;;;;;;5034618;28;20455;-93
2022/04/23 06:20:48;;;;;;;14.27;11.77;;;;;;;;;;5037707;28;20452;-93
2022/04/23 06:23:16;;;;;;;13.33;11.93;;;;;;;;;;5037974;28;20455;-87
2022/04/23 06:25:43;;;;;;;14.33;12.57;;;;;;;;;;5037869;28;20443;-90
2022/04/23 06:28:11;;;;;;;13.97;11.80;;;;;;;;;;5044147;28;20471;-89
2022/04/23 06:30:39;;;;;;;14.07;11.77;;;9.20;99.90;;;;;;5044026;28;20486;-95
2022/04/23 06:33:07;;;;;;;13.37;12.07;;;;;;;;;;5046643;28;20489;-92
2022/04/23 06:35:34;;;;;;;10.77;9.23;;;;;;;;;;5045784;28;20462;-88
2022/04/23 06:38:02;;;;;;;11.57;10.10;;;;;;;;;;5054218;28;20438;-94
2022/04/23 06:40:31;;;;;;;13.77;11.97;;;;;;;;;;5047321;28;20439;-88
2022/04/23 06:42:58;;;;;;;13.07;11.10;;;;;;;;;;5053674;28;20466;-88
2022/04/23 06:45:25;;;;;;;13.77;11.83;;;;;;;;;;5048299;28;20907;-90
2022/04/23 06:48:04;;;;;;;11.50;9.97;;;9.10;99.90;;;;;;5045608;28;20435;-91
2022/04/23 06:50:31;;;;;;;13.33;11.93;;;;;;;;;;5040485;28;20431;-88
2022/04/23 06:52:58;;;;;;;12.43;10.00;;;;;;;;;;5043864;28;20986;-92
2022/04/23 06:55:25;;;;;;;11.60;9.97;;;;;;;;;;5041590;28;20795;-87
2022/04/23 06:57:52;;;;;;;15.10;10.67;;;;;;;;;;5044793;28;20765;-88
2022/04/23 07:00:22;;;;;;;10.90;9.50;;;;;;;;;;5041191;28;20463;-88
2022/04/23 07:02:50;;;;;;;11.00;9.20;;;9.20;99.90;;;;;;5041387;28;20570;-93
2022/04/23 07:05:19;;;;;;;11.00;9.63;;;9.20;99.90;;;;;;5042704;28;20517;-93
2022/04/23 07:07:57;;;;;;;12.13;10.33;;;9.20;99.90;;;;;;5049391;28;20510;-92
2022/04/23 07:10:24;;;;;;;12.50;10.90;;;;;;;;;;5046429;28;20497;-92
2022/04/23 07:12:53;;;;;;;11.43;9.80;;;;;;;;;;5043872;28;20478;-90
2022/04/23 07:15:20;;;;;;;11.80;10.30;;;;;;;;;;5040897;28;20443;-92
2022/04/23 07:17:47;;;;;;;9.57;8.27;;;;;;;;;;5040942;28;20467;-89
2022/04/23 07:20:16;;;;;;;10.63;9.53;;;;;;;;;;5040663;28;20927;-95
2022/04/23 07:24:03;;;;;;;6.97;6.27;;;9.40;99.90;;;;;;5045972;28;20483;-93
2022/04/23 07:25:33;;;;;;;12.20;10.07;;;;;;;;;;5038550;28;20513;-93
2022/04/23 07:28:00;;;;;;;11.27;9.77;;;;;;;;;;5037204;28;20953;-93
2022/04/23 07:30:27;;;;;;;11.27;9.50;;;;;;;;;;5038375;28;20490;-89
2022/04/23 07:32:55;;;;;;;9.00;8.10;;;;;;;;;;5039566;28;20455;-91
2022/04/23 07:38:12;;;;;;;8.90;7.03;;;9.90;99.90;;;;;;5036097;28;20489;-93
2022/04/23 07:40:40;;;;;;;9.10;8.30;;;;;;;;;;5036404;28;20439;-93
2022/04/23 07:43:11;;;;;;;13.93;8.50;;;;;;;;;;5037874;28;20838;-89
2022/04/23 07:45:38;;;;;;;9.90;8.90;;;;;;;;;;5037318;28;20819;-94
2022/04/23 07:48:06;;;;;;;9.70;8.70;;;10.00;99.90;;;;;;5036142;28;20458;-87
2022/04/23 07:50:33;;;;;;;10.13;9.13;;;;;;;;;;5031625;28;20491;-92
2022/04/23 07:53:01;;;;;;;9.37;8.23;;;;;;;;;;5045647;28;20448;-90
2022/04/23 07:55:32;;;;;;;7.73;6.93;;;9.70;99.90;;;;;;5038401;28;20470;-93
2022/04/23 07:58:00;;;;;;;11.60;8.83;;;;;;;;;;5037382;28;20463;-91
2022/04/23 08:00:29;;;;;;;10.03;8.93;;;;;;;;;;5038993;28;20459;-92
2022/04/23 08:02:56;;;;;;;10.07;8.90;;;;;;;;;;5036068;28;20440;-91
2022/04/23 08:05:24;;;;;;;9.23;8.33;;;;;;;;;;5034031;28;20485;-89
2022/04/23 08:07:51;;;;;;;9.00;8.10;;;;;;;;;;5035120;28;20977;-90
2022/04/23 08:10:18;;;;;;;9.93;8.63;;;;;;;;;;5034547;28;20483;-91
2022/04/23 08:12:47;;;;;;;9.80;8.63;;;;;;;;;;5034241;28;20436;-90
2022/04/23 08:15:14;;;;;;;10.40;9.10;;;;;;;;;;5034616;28;20834;-91
2022/04/23 08:17:42;;;;;;;10.37;9.13;;;;;;;;;;5034723;28;20958;-91
2022/04/23 08:20:11;;;;;;;7.67;5.77;;;10.20;99.90;;;;;;5033930;28;20451;-91
2022/04/23 08:22:38;;;;;;;9.27;8.27;;;;;;;;;;5036603;28;20987;-92
2022/04/23 08:25:05;;;;;;;11.10;9.67;;;;;;;;;;5033969;28;20440;-93
2022/04/23 08:27:32;;;;;;;9.77;8.77;;;;;;;;;;5035287;28;20448;-92
2022/04/23 08:32:46;;;;;;;9.77;8.67;;;;;;;;;;5043090;28;20989;-90
2022/04/23 08:35:13;;;;;;;10.07;9.00;;;;;;;;;;5032951;28;20483;-90
2022/04/23 08:37:40;;;;;;;11.30;10.20;;;;;;;;;;5035144;28;20452;-89
2022/04/23 08:40:09;;;;;;;9.80;8.80;;;11.10;99.90;;;;;;5034796;28;20935;-91
2022/04/23 08:42:39;;;;;;;9.43;8.53;;;10.90;99.90;;;;;;5036614;28;20930;-90
2022/04/23 08:45:11;;;;;;;9.20;8.00;;;10.90;99.90;;;;;;5034748;28;20446;-89
2022/04/23 08:47:38;;;;;;;9.20;8.20;;;;;;;;;;5034065;28;20456;-91
2022/04/23 08:50:07;;;;;;;10.60;9.47;;;11.30;99.90;;;;;;5034080;28;20509;-91
2022/04/23 08:52:34;;;;;;;10.30;9.20;;;;;;;;;;5034378;28;20450;-90
2022/04/23 08:55:01;;;;;;;10.30;9.00;;;;;;;;;;5033430;28;20444;-90
2022/04/23 08:57:29;;;;;;;10.40;8.90;;;;;;;;;;5033549;28;20431;-89
2022/04/23 08:59:57;;;;;;;10.77;9.67;;;11.10;99.90;;;;;;5033626;28;20927;-91
2022/04/23 09:02:26;;;;;;;12.13;10.40;;;11.00;99.90;;;;;;5031231;28;20420;-93
2022/04/23 09:04:53;;;;;;;10.47;9.37;;;;;;;;;;5035444;28;21008;-89
2022/04/23 09:07:22;;;;;;;22.10;11.40;;;11.00;99.90;;;;;;5033477;28;20513;-91
2022/04/23 09:09:50;;;;;;;10.67;9.43;;;;;;;;;;5033193;28;20845;-89
2022/04/23 09:12:18;;;;;;;11.60;9.47;;;;;;;;;;5033831;28;20444;-90
2022/04/23 09:14:46;;;;;;;11.93;9.90;;;;;;;;;;5033846;28;20829;-90
2022/04/23 09:25:41;;;;;;;24.30;10.23;;;11.00;99.90;;;;;;5033388;28;20428;-90
2022/04/23 09:28:18;;;;;;;12.43;10.53;;;11.00;99.90;;;;;;5033114;28;20451;-91
2022/04/23 09:30:46;;;;;;;23.10;12.10;;;;;;;;;;5033296;28;20497;-91
2022/04/23 09:33:13;;;;;;;20.43;9.73;;;;;;;;;;5032569;28;20517;-89
2022/04/23 09:35:55;;;;;;;13.90;10.17;;;11.20;99.90;;;;;;5032363;28;20479;-89
2022/04/23 09:38:22;;;;;;;10.43;8.27;;;;;;;;;;5033838;28;20443;-92
2022/04/23 09:40:54;;;;;;;14.00;10.20;;;11.40;99.90;;;;;;5033228;28;20440;-90
2022/04/23 09:43:29;;;;;;;12.87;10.30;;;11.50;99.90;;;;;;5033570;28;20864;-91
2022/04/23 09:46:04;;;;;;;10.73;8.63;;;11.30;99.90;;;;;;5033195;28;20455;-92
2022/04/23 09:48:31;;;;;;;13.60;11.30;;;;;;;;;;5032838;28;20508;-91
2022/04/23 09:51:00;;;;;;;9.47;7.37;;;11.40;99.90;;;;;;5035592;28;20479;-92
2022/04/23 09:53:28;;;;;;;9.07;8.10;;;;;;;;;;5036921;28;20927;-92
2022/04/23 09:55:59;;;;;;;10.80;9.07;;;11.60;99.90;;;;;;5034863;28;20946;-91
2022/04/23 09:58:27;;;;;;;11.80;9.77;;;;;;;;;;5037202;28;20431;-92
2022/04/23 10:00:55;;;;;;;11.00;9.47;;;;;;;;;;5037660;28;20954;-90
2022/04/23 10:03:27;;;;;;;10.37;8.57;;;11.60;99.90;;;;;;5036479;28;20450;-91
2022/04/23 10:05:54;;;;;;;8.77;6.17;;;;;;;;;;5036751;28;20439;-88
2022/04/23 10:08:25;;;;;;;9.07;8.07;;;12.00;99.90;;;;;;5036853;28;20475;-88
2022/04/23 10:10:55;;;;;;;10.47;8.70;;;12.00;99.90;;;;;;5030498;28;20498;-88
2022/04/23 10:13:23;;;;;;;11.33;8.50;;;12.10;99.90;;;;;;5036321;28;20451;-91
2022/04/23 10:15:53;;;;;;;7.30;5.80;;;12.20;99.90;;;;;;5036462;28;20455;-90
2022/04/23 10:18:21;;;;;;;8.57;6.77;;;;;;;;;;5035257;28;20900;-90
2022/04/23 10:20:54;;;;;;;8.80;6.90;;;;;;;;;;5036349;28;20451;-90
2022/04/23 10:23:32;;;;;;;8.80;7.90;;;12.90;99.90;;;;;;5039115;28;20458;-92
2022/04/23 10:26:15;;;;;;;9.57;7.60;;;12.90;99.90;;;;;;5048297;28;20446;-93
2022/04/23 10:28:46;;;;;;;9.47;7.77;;;13.10;99.90;;;;;;5052512;28;20546;-92
2022/04/23 10:31:15;;;;;;;7.43;6.63;;;12.60;99.90;;;;;;5059083;22;20479;-90
2022/04/23 10:33:46;;;;;;;7.77;6.93;;;12.50;99.90;;;;;;5033930;28;20490;-92
2022/04/23 10:36:13;;;;;;;8.37;6.93;;;;;;;;;;5045309;22;20484;-95
2022/04/23 10:38:45;;;;;;;10.20;6.80;;;12.90;99.90;;;;;;5032586;28;20440;-91
2022/04/23 10:41:14;;;;;;;8.60;7.70;;;13.00;99.90;;;;;;5026209;28;20888;-92
2022/04/23 10:43:50;;;;;;;15.93;8.40;;;13.40;99.90;;;;;;5028446;28;20449;-93
2022/04/23 10:46:56;;;;;;;8.60;7.73;;;13.00;99.90;;;;;;5032913;28;20527;-90
2022/04/23 10:49:24;;;;;;;9.27;7.47;;;12.80;99.90;;;;;;5024734;28;20479;-94
2022/04/23 10:51:52;;;;;;;11.10;8.83;;;13.10;99.90;;;;;;5027985;28;20449;-93
2022/04/23 10:54:22;;;;;;;9.90;8.80;;;12.90;99.90;;;;;;5029087;28;20484;-93
2022/04/23 10:56:50;;;;;;;11.53;9.83;;;12.70;99.90;;;;;;5029703;28;20460;-91
2022/04/23 10:59:38;;;;;;;10.27;9.13;;;13.20;99.90;;;;;;5028605;28;20444;-89
2022/04/23 11:04:31;;;;;;;12.37;9.70;;;;;;;;;;5048775;23;20999;-90
2022/04/23 11:12:55;;;;;;;9.70;8.67;;;13.10;99.90;;;;;;5010776;28;20457;-95
2022/04/23 11:15:22;;;;;;;11.73;9.17;;;;;;;;;;5008422;28;20477;-94
2022/04/23 11:17:55;;;;;;;10.27;8.17;;;13.40;99.90;;;;;;5007066;28;20449;-92
2022/04/23 11:20:33;;;;;;;10.60;9.37;;;13.50;99.90;;;;;;5010399;28;20465;-89
2022/04/23 11:23:03;;;;;;;9.90;8.40;;;13.20;99.90;;;;;;4987018;28;20489;-91
2022/04/23 11:25:32;;;;;;;9.47;8.50;;;13.30;99.90;;;;;;5001589;23;20463;-96
2022/04/23 11:28:14;;;;;;;10.03;9.03;;;13.70;99.90;;;;;;5046294;22;20559;-89
2022/04/23 11:30:42;;;;;;;10.87;9.77;;;;;;;;;;5033893;28;20555;-91
2022/04/23 11:33:16;;;;;;;8.70;7.47;;;13.90;99.90;;;;;;5042069;22;20499;-89
2022/04/23 11:35:43;;;;;;;10.10;9.10;;;;;;;;;;5033940;28;20439;-90
2022/04/23 11:38:25;;;;;;;11.87;9.57;;;;;;;;;;5032132;28;20439;-91
2022/04/23 11:40:53;;;;;;;10.37;9.37;;;13.80;99.90;;;;;;5031659;28;20440;-90
2022/04/23 11:43:31;;;;;;;12.80;9.30;;;13.80;99.90;;;;;;5031196;28;20457;-89
2022/04/23 11:46:02;;;;;;;7.87;7.07;;;14.10;99.90;;;;;;5034143;28;20436;-93
2022/04/23 11:48:29;;;;;;;9.73;8.13;;;;;;;;;;5035363;28;20478;-88
2022/04/23 11:51:06;;;;;;;11.73;9.37;;;13.70;99.90;;;;;;5032855;28;20515;-88
2022/04/23 11:53:52;;;;;;;10.27;8.80;;;13.50;99.90;;;;;;5008136;28;20475;-88
2022/04/23 11:56:32;;;;;;;9.80;8.10;;;13.80;99.90;;;;;;5032557;28;20483;-90
2022/04/23 11:59:04;;;;;;;9.80;8.80;;;14.00;99.90;;;;;;5027294;28;20522;-92
2022/04/23 12:01:31;;;;;;;9.30;8.17;;;;;;;;;;5022283;28;20932;-88
2022/04/23 12:03:59;;;;;;;10.27;8.43;;;14.60;99.90;;;;;;5022950;28;20483;-92
2022/04/23 12:06:27;;;;;;;8.23;7.33;;;14.50;99.90;;;;;;5033570;22;20437;-90
2022/04/23 12:09:05;;;;;;;8.50;7.70;;;14.70;99.90;;;;;;5004752;28;20457;-88
2022/04/23 12:11:33;;;;;;;7.77;7.07;;;14.70;99.90;;;;;;5003630;28;20484;-88
2022/04/23 12:14:02;;;;;;;9.60;8.50;;;15.00;99.90;;;;;;5008921;28;20454;-89
2022/04/23 12:16:33;;;;;;;9.50;8.53;;;14.80;99.90;;;;;;5001750;28;20472;-89
2022/04/23 12:19:03;;;;;;;9.37;8.40;;;14.80;99.90;;;;;;5031010;23;20495;-88
2022/04/23 12:21:30;;;;;;;10.07;8.90;;;;;;;;;;5036218;28;20455;-88
2022/04/23 12:23:57;;;;;;;22.03;14.60;;;;;;;;;;5045064;28;20447;-88
2022/04/23 12:26:27;;;;;;;8.83;8.03;;;;;;;;;;5060000;23;20435;-89
2022/04/23 12:43:23;;;;;;;8.60;7.70;;;14.40;99.90;;;;;;4994994;28;20617;-92
2022/04/23 12:45:52;;;;;;;9.50;8.60;;;14.10;99.90;;;;;;4994927;28;20456;-92
2022/04/23 12:48:19;;;;;;;9.90;8.90;;;;;;;;;;4957742;28;20453;-92
2022/04/23 12:50:46;;;;;;;10.17;8.83;;;;;;;;;;5000849;28;20520;-90
2022/04/23 12:53:32;;;;;;;9.60;8.70;;;14.00;99.90;;;;;;4997288;28;20544;-94
2022/04/23 12:56:01;;;;;;;10.53;9.10;;;;;;;;;;4996825;28;20437;-92
2022/04/23 12:58:30;;;;;;;9.57;8.13;;;14.30;99.90;;;;;;5002459;28;20460;-91
2022/04/23 13:00:58;;;;;;;9.90;8.90;;;14.60;99.90;;;;;;4997768;28;20441;-90
2022/04/23 13:03:33;;;;;;;11.07;8.80;;;14.50;99.90;;;;;;4998001;28;20822;-92
2022/04/23 13:06:03;;;;;;;10.50;9.20;;;14.30;99.90;;;;;;4998972;28;20503;-93
2022/04/23 13:11:27;;;;;;;9.70;8.70;;;;;;;;;;5004093;28;20512;-88
2022/04/23 13:13:55;;;;;;;10.47;9.47;;;;;;;;;;4998831;28;21150;-90
2022/04/23 13:16:24;;;;;;;10.40;7.70;;;14.50;99.90;;;;;;5003248;28;20461;-93
2022/04/23 13:18:55;;;;;;;9.03;8.13;;;14.30;99.90;;;;;;5002193;28;20453;-91
2022/04/23 13:21:22;;;;;;;7.50;6.80;;;;;;;;;;5041382;23;20552;-92
2022/04/23 13:23:51;;;;;;;8.40;7.40;;;14.40;99.90;;;;;;5047363;28;20423;-94
2022/04/23 13:26:18;;;;;;;8.70;7.77;;;;;;;;;;5050390;28;20446;-93
2022/04/23 13:28:45;;;;;;;8.40;7.60;;;;;;;;;;5046796;28;20504;-91
2022/04/23 13:31:12;;;;;;;8.37;7.57;;;;;;;;;;5052714;28;20471;-94
2022/04/23 13:33:44;;;;;;;8.73;7.83;;;;;;;;;;5049290;28;20451;-92
2022/04/23 13:36:11;;;;;;;8.33;7.33;;;;;;;;;;5046640;28;20451;-94
2022/04/23 13:38:38;;;;;;;7.87;7.17;;;;;;;;;;5046420;28;20443;-90
2022/04/23 13:41:06;;;;;;;8.90;8.00;;;14.50;99.90;;;;;;5047901;28;20439;-90
2022/04/23 13:43:36;;;;;;;11.23;8.20;;;14.30;99.90;;;;;;5013765;28;20452;-91
2022/04/23 13:46:04;;;;;;;9.60;8.60;;;14.30;99.90;;;;;;5049133;23;20483;-92
2022/04/23 13:48:31;;;;;;;7.40;6.70;;;;;;;;;;5052750;28;20431;-93
2022/04/23 13:50:59;;;;;;;9.17;8.37;;;14.30;99.90;;;;;;5044916;28;20479;-94
2022/04/23 13:53:27;;;;;;;10.27;9.27;;;;;;;;;;5050556;28;20439;-91
2022/04/23 13:55:54;;;;;;;9.90;8.90;;;;;;;;;;5047012;28;20479;-94
2022/04/23 13:58:21;;;;;;;8.50;7.70;;;;;;;;;;5026384;23;20484;-93
2022/04/23 14:00:48;;;;;;;8.97;8.17;;;;;;;;;;5009824;28;20457;-96
2022/04/23 14:11:33;;;;;;;8.67;7.87;;;;;;;;;;4982527;28;20511;-94
2022/04/23 14:14:01;;;;;;;12.23;8.50;;;;;;;;;;5000703;28;20446;-95
2022/04/23 14:16:28;;;;;;;8.00;7.30;;;;;;;;;;5004784;28;20867;-93
2022/04/23 14:18:56;;;;;;;10.77;8.40;;;;;;;;;;5009258;28;20426;-94
2022/04/23 14:21:25;;;;;;;9.80;8.80;;;14.30;99.90;;;;;;5019350;28;20475;-95
2022/04/23 14:23:52;;;;;;;12.57;9.00;;;;;;;;;;5020541;28;20494;-93
2022/04/23 14:26:21;;;;;;;10.57;8.07;;;;;;;;;;5021659;28;20451;-95
2022/04/23 14:28:48;;;;;;;11.90;9.57;;;;;;;;;;5020951;28;20468;-95
2022/04/23 14:31:16;;;;;;;10.70;9.70;;;;;;;;;;5024221;28;20480;-94
2022/04/23 14:33:43;;;;;;;9.23;8.33;;;;;;;;;;5025333;23;20449;-93
2022/04/23 14:36:10;;;;;;;10.23;9.20;;;;;;;;;;5002513;28;20457;-94
2022/04/23 14:38:39;;;;;;;10.80;9.37;;;14.20;99.90;;;;;;5003122;28;20453;-95
2022/04/23 14:41:06;;;;;;;13.30;9.47;;;;;;;;;;4998785;28;20453;-92
2022/04/23 14:43:35;;;;;;;9.80;8.80;;;;;;;;;;5003615;28;20449;-96